Roosevelt, Oklahoma
Current Conditions -  °F | °C
As of 8:53 PM on Tuesday 25 Nov 2014 (Local Time) from KHBR Reporting Station
Clear Clear  
Wind Chill: 37°   Ceiling: Unl
Heat Index: 44°   Visibility: 10mi
Dew Point: 32°   Wind: 16mph
Humidity: 63%   Direction: 180°S
Pressure: 30.01"   Gusts: NA
Location:  34.85°N, 99.02°W
Report Text: KHBR 260253Z AUTO 18014KT 10SM CLR 07/00 A3001 RMK AO2 SLP167 T00670000 56019
Loading
Personal Weather Stations






























Interactive Weather Map New forecast layout! Learn more

10-Day Weather Forecast

Advertisements
Track Severe Weather on mobile